createdAt,value
2019-04-29T00:01:35.580Z,3.00
2019-04-29T00:04:04.266Z,3.03
2019-04-29T00:06:33.199Z,2.77
2019-04-29T00:09:01.781Z,3.50
2019-04-29T00:11:30.211Z,1.97
2019-04-29T00:13:59.085Z,2.30
2019-04-29T00:16:45.582Z,2.20
2019-04-29T00:19:24.610Z,3.23
2019-04-29T00:21:53.501Z,3.03
2019-04-29T00:24:21.899Z,2.50
2019-04-29T00:26:50.332Z,1.80
2019-04-29T00:29:19.063Z,2.93
2019-04-29T00:31:47.628Z,2.10
2019-04-29T00:34:16.058Z,2.60
2019-04-29T00:36:46.888Z,2.43
2019-04-29T00:39:35.440Z,1.70
2019-04-29T00:42:09.421Z,2.20
2019-04-29T00:44:37.854Z,2.90
2019-04-29T00:47:07.792Z,2.30
2019-04-29T00:49:36.322Z,2.80
2019-04-29T00:52:04.708Z,2.90
2019-04-29T00:54:35.139Z,2.27
2019-04-29T00:57:04.018Z,2.50
2019-04-29T00:59:32.668Z,3.37
2019-04-29T01:02:01.083Z,2.90
2019-04-29T01:04:29.539Z,2.33
2019-04-29T01:06:57.975Z,3.20
2019-04-29T01:09:26.645Z,2.57
2019-04-29T01:11:55.144Z,3.13
2019-04-29T01:14:23.542Z,2.40
2019-04-29T01:16:51.944Z,5.00
2019-04-29T01:19:20.415Z,3.50
2019-04-29T01:21:49.090Z,4.97
2019-04-29T01:24:17.482Z,3.50
2019-04-29T01:26:47.887Z,4.00
2019-04-29T01:29:18.517Z,4.60
2019-04-29T01:31:47.421Z,3.60
2019-04-29T01:34:17.823Z,2.83
2019-04-29T01:36:47.516Z,2.33
2019-04-29T01:39:16.680Z,3.03
2019-04-29T01:41:50.263Z,2.67
2019-04-29T01:44:20.167Z,2.17
2019-04-29T01:46:49.082Z,3.27
2019-04-29T01:49:17.910Z,2.33
2019-04-29T01:51:46.663Z,2.60
2019-04-29T01:54:15.092Z,2.23
2019-04-29T01:56:43.823Z,3.03
2019-04-29T01:59:12.231Z,2.30
2019-04-29T02:01:40.645Z,3.83
2019-04-29T02:04:10.090Z,3.13
2019-04-29T02:06:38.510Z,3.77
2019-04-29T02:09:10.245Z,3.37
2019-04-29T02:11:39.672Z,3.53
2019-04-29T02:14:08.087Z,2.30
2019-04-29T02:16:36.557Z,4.00
2019-04-29T02:19:05.308Z,2.30
2019-04-29T02:21:33.728Z,2.97
2019-04-29T02:24:06.750Z,2.57
2019-04-29T02:26:35.775Z,2.83
2019-04-29T02:29:04.399Z,2.60
2019-04-29T02:31:38.657Z,2.33
2019-04-29T02:34:08.186Z,2.20
2019-04-29T02:36:37.706Z,1.90
2019-04-29T02:39:19.584Z,1.77
2019-04-29T02:42:08.045Z,1.60
2019-04-29T02:44:36.639Z,1.60
2019-04-29T02:47:05.070Z,1.50
2019-04-29T02:49:33.815Z,2.03
2019-04-29T02:52:02.498Z,1.73
2019-04-29T02:54:30.919Z,1.83
2019-04-29T02:57:10.298Z,2.10
2019-04-29T02:59:43.403Z,2.30
2019-04-29T03:02:17.053Z,3.10
2019-04-29T03:05:05.358Z,1.70
2019-04-29T03:07:33.997Z,1.20
2019-04-29T03:10:02.408Z,2.00
2019-04-29T03:12:31.036Z,1.70
2019-04-29T03:15:00.357Z,1.70
2019-04-29T03:17:29.821Z,2.67
2019-04-29T03:20:16.731Z,1.67
2019-04-29T03:22:46.895Z,1.50
2019-04-29T03:25:15.645Z,1.57
2019-04-29T03:27:44.190Z,2.20
2019-04-29T03:30:13.417Z,8.90
2019-04-29T03:32:41.831Z,1.40
2019-04-29T03:35:10.674Z,1.90
2019-04-29T03:37:41.110Z,1.63
2019-04-29T03:40:09.618Z,2.37
2019-04-29T03:42:38.732Z,2.60
2019-04-29T03:45:07.400Z,3.07
2019-04-29T03:47:35.802Z,3.23
2019-04-29T03:50:05.579Z,2.23
2019-04-29T03:52:34.295Z,1.70
2019-04-29T03:55:02.760Z,2.20
2019-04-29T03:57:33.128Z,3.10
2019-04-29T04:00:01.816Z,2.77
2019-04-29T04:02:38.398Z,2.10
2019-04-29T04:05:25.041Z,2.80
2019-04-29T04:07:55.100Z,2.50
2019-04-29T04:10:24.708Z,3.03
2019-04-29T04:12:53.185Z,4.93
2019-04-29T04:15:22.264Z,2.03
2019-04-29T04:17:58.071Z,2.27
2019-04-29T04:20:27.183Z,3.40
2019-04-29T04:22:55.723Z,1.90
2019-04-29T04:25:24.512Z,2.20
2019-04-29T04:27:53.078Z,2.73
2019-04-29T04:30:21.932Z,2.70
2019-04-29T04:32:50.492Z,2.27
2019-04-29T04:35:18.956Z,4.67
2019-04-29T04:37:47.346Z,5.20
2019-04-29T04:40:20.877Z,2.47
2019-04-29T04:42:49.805Z,3.80
2019-04-29T04:45:18.537Z,3.07
2019-04-29T04:47:47.230Z,2.97
2019-04-29T04:50:16.255Z,3.00
2019-04-29T04:52:44.680Z,2.43
2019-04-29T04:55:13.612Z,2.73
2019-04-29T04:57:42.151Z,2.77
2019-04-29T05:00:20.261Z,2.90
2019-04-29T05:02:49.058Z,2.80
2019-04-29T05:05:17.979Z,2.97
2019-04-29T05:07:46.823Z,4.10
2019-04-29T05:10:15.537Z,5.03
2019-04-29T05:12:44.001Z,3.33
2019-04-29T05:15:12.791Z,3.80
2019-04-29T05:17:41.558Z,6.03
2019-04-29T05:20:10.301Z,3.77
2019-04-29T05:22:39.022Z,4.30
2019-04-29T05:25:08.120Z,4.63
2019-04-29T05:27:36.527Z,5.33
2019-04-29T05:30:05.942Z,4.90
2019-04-29T05:32:34.404Z,5.00
2019-04-29T05:35:14.041Z,4.00
2019-04-29T05:37:49.947Z,4.27
2019-04-29T05:40:36.707Z,5.00
2019-04-29T05:43:05.682Z,3.30
2019-04-29T05:45:35.739Z,5.57
2019-04-29T05:48:08.501Z,4.57
2019-04-29T05:50:47.559Z,4.10
2019-04-29T05:53:17.943Z,4.80
2019-04-29T05:55:46.942Z,4.37
2019-04-29T05:58:15.400Z,4.70
2019-04-29T06:00:46.999Z,6.13
2019-04-29T06:03:15.678Z,5.60
2019-04-29T06:05:44.452Z,4.93
2019-04-29T06:08:13.181Z,4.30
2019-04-29T06:10:42.198Z,3.43
2019-04-29T06:13:11.053Z,5.50
2019-04-29T06:15:40.201Z,5.57
2019-04-29T06:18:08.601Z,5.87
2019-04-29T06:20:37.133Z,4.83
2019-04-29T06:23:05.654Z,3.83
2019-04-29T06:25:34.115Z,7.10
2019-04-29T06:28:03.006Z,4.67
2019-04-29T06:30:31.437Z,4.73
2019-04-29T06:32:59.868Z,5.40
2019-04-29T06:35:28.632Z,4.63
2019-04-29T06:37:57.053Z,7.00
2019-04-29T06:40:25.461Z,6.60
2019-04-29T06:42:55.180Z,6.07
2019-04-29T06:45:24.020Z,4.20
2019-04-29T06:47:53.321Z,3.87
2019-04-29T06:50:21.780Z,4.40
2019-04-29T06:52:50.224Z,5.67
2019-04-29T06:55:18.635Z,4.73
2019-04-29T06:57:47.079Z,12.43
2019-04-29T07:00:17.644Z,10.90
2019-04-29T07:02:49.947Z,5.20
2019-04-29T07:05:16.424Z,10.37
2019-04-29T07:07:45.008Z,4.47
2019-04-29T07:10:16.531Z,5.83
2019-04-29T07:12:47.390Z,4.33
2019-04-29T07:15:15.394Z,5.00
2019-04-29T07:17:44.262Z,6.40
2019-04-29T07:20:13.403Z,4.20
2019-04-29T07:22:41.873Z,35.83
2019-04-29T07:25:10.476Z,9.50
2019-04-29T07:27:43.390Z,5.87
2019-04-29T07:30:10.038Z,5.83
2019-04-29T07:32:42.254Z,8.90
2019-04-29T07:35:09.969Z,7.00
2019-04-29T07:37:39.600Z,8.23
2019-04-29T07:40:09.390Z,6.33
2019-04-29T07:42:37.998Z,4.63
2019-04-29T07:45:28.267Z,5.90
2019-04-29T07:48:01.590Z,7.93
2019-04-29T07:50:28.546Z,5.63
2019-04-29T07:52:57.133Z,7.43
2019-04-29T07:55:30.473Z,5.47
2019-04-29T07:57:56.058Z,5.87
2019-04-29T08:00:33.515Z,4.40
2019-04-29T08:03:03.274Z,5.93
2019-04-29T08:05:31.821Z,6.30
2019-04-29T08:08:00.818Z,7.27
2019-04-29T08:10:29.919Z,5.40
2019-04-29T08:12:59.475Z,6.73
2019-04-29T08:15:31.582Z,4.83
2019-04-29T08:18:06.366Z,6.40
2019-04-29T08:20:29.636Z,7.40
2019-04-29T08:23:02.537Z,5.57
2019-04-29T08:25:28.783Z,5.10
2019-04-29T08:27:57.187Z,6.60
2019-04-29T08:30:25.641Z,8.33
2019-04-29T08:32:54.487Z,6.07
2019-04-29T08:35:23.011Z,5.17
2019-04-29T08:37:51.860Z,7.20
2019-04-29T08:40:20.350Z,5.20
2019-04-29T08:43:06.996Z,5.40
2019-04-29T08:45:39.206Z,5.77
2019-04-29T08:48:07.459Z,5.33
2019-04-29T08:50:36.285Z,6.40
2019-04-29T08:53:08.547Z,9.47
2019-04-29T08:55:37.007Z,4.97
2019-04-29T08:58:06.933Z,8.50
2019-04-29T09:00:35.847Z,6.13
2019-04-29T09:03:04.487Z,36.10
2019-04-29T09:05:32.922Z,14.80
2019-04-29T09:08:01.314Z,23.63
2019-04-29T09:10:32.985Z,8.00
2019-04-29T09:12:59.877Z,4.00
2019-04-29T09:15:28.285Z,3.63
2019-04-29T09:17:56.683Z,3.07
2019-04-29T09:20:25.421Z,5.00
2019-04-29T09:23:08.348Z,8.33
2019-04-29T09:25:41.802Z,8.20
2019-04-29T09:28:17.676Z,3.53
2019-04-29T09:30:42.145Z,2.63
2019-04-29T09:33:13.171Z,6.73
2019-04-29T09:35:40.712Z,9.27
2019-04-29T09:38:09.144Z,3.67
2019-04-29T09:40:39.555Z,5.77
2019-04-29T09:43:15.691Z,2.83
2019-04-29T09:46:01.961Z,3.90
2019-04-29T09:48:30.806Z,2.63
2019-04-29T09:50:59.264Z,4.70
2019-04-29T09:53:27.700Z,1.60
2019-04-29T09:55:56.459Z,4.53
2019-04-29T09:58:26.372Z,3.63
2019-04-29T10:01:18.683Z,3.00
2019-04-29T10:03:50.480Z,5.83
2019-04-29T10:06:23.248Z,3.80
2019-04-29T10:08:51.634Z,5.37
2019-04-29T10:11:20.034Z,3.40
2019-04-29T10:13:48.508Z,2.00
2019-04-29T10:16:18.825Z,4.60
2019-04-29T10:19:00.728Z,4.67
2019-04-29T10:21:28.223Z,1.67
2019-04-29T10:23:57.083Z,3.00
2019-04-29T10:26:25.743Z,5.30
2019-04-29T10:28:56.116Z,4.63
2019-04-29T10:31:24.885Z,4.40
2019-04-29T10:33:54.816Z,1.87
2019-04-29T10:36:26.250Z,4.30
2019-04-29T10:38:56.526Z,2.17
2019-04-29T10:41:29.675Z,2.50
2019-04-29T10:44:16.266Z,4.67
2019-04-29T10:46:55.342Z,6.23
2019-04-29T10:49:28.819Z,2.57
2019-04-29T10:51:58.047Z,2.23
2019-04-29T10:54:28.560Z,2.97
2019-04-29T10:56:57.017Z,1.90
2019-04-29T10:59:35.689Z,1.97
2019-04-29T11:02:18.437Z,3.10
2019-04-29T11:04:48.950Z,1.40
2019-04-29T11:07:26.380Z,1.60
2019-04-29T11:09:54.398Z,7.77
2019-04-29T11:12:23.173Z,2.10
2019-04-29T11:14:51.923Z,2.03
2019-04-29T11:17:23.081Z,1.77
2019-04-29T11:19:51.865Z,3.37
2019-04-29T11:22:21.959Z,4.17
2019-04-29T11:25:03.973Z,6.37
2019-04-29T11:27:34.306Z,2.77
2019-04-29T11:30:04.941Z,4.87
2019-04-29T11:32:35.568Z,1.77
2019-04-29T11:35:06.470Z,4.87
2019-04-29T11:37:34.988Z,3.67
2019-04-29T11:40:04.718Z,3.57
2019-04-29T11:42:36.761Z,4.13
2019-04-29T11:45:07.031Z,4.50
2019-04-29T11:47:35.522Z,3.40
2019-04-29T11:50:11.965Z,2.00
2019-04-29T11:52:39.309Z,1.40
2019-04-29T11:55:08.236Z,3.60
2019-04-29T11:57:40.950Z,6.67
2019-04-29T12:00:29.441Z,3.90
2019-04-29T12:03:05.913Z,4.60
2019-04-29T12:05:40.280Z,1.27
2019-04-29T12:08:16.112Z,2.90
2019-04-29T12:10:48.488Z,3.53
2019-04-29T12:13:11.855Z,2.77
2019-04-29T12:15:45.063Z,2.67
2019-04-29T12:18:19.998Z,2.70
2019-04-29T12:20:50.058Z,2.17
2019-04-29T12:23:18.819Z,6.93
2019-04-29T12:25:48.595Z,3.40
2019-04-29T12:28:19.410Z,2.07
2019-04-29T12:30:51.845Z,3.00
2019-04-29T12:33:22.226Z,3.93
2019-04-29T12:36:07.505Z,5.13
2019-04-29T12:38:40.200Z,3.17
2019-04-29T12:41:30.253Z,3.77
2019-04-29T12:43:59.592Z,1.90
2019-04-29T12:46:38.992Z,5.60
2019-04-29T12:49:09.498Z,3.03
2019-04-29T12:51:37.839Z,7.27
2019-04-29T12:54:07.202Z,2.27
2019-04-29T12:56:37.266Z,2.93
2019-04-29T12:59:06.427Z,5.93
2019-04-29T13:01:51.543Z,2.30
2019-04-29T13:04:23.533Z,4.83
2019-04-29T13:07:06.661Z,4.30
2019-04-29T13:09:39.278Z,4.70
2019-04-29T13:12:18.894Z,3.00
2019-04-29T13:14:39.886Z,5.03
2019-04-29T13:17:14.759Z,4.03
2019-04-29T13:20:02.032Z,2.37
2019-04-29T13:22:29.430Z,4.50
2019-04-29T13:24:57.831Z,5.50
2019-04-29T13:27:26.737Z,2.53
2019-04-29T13:29:55.587Z,3.87
2019-04-29T13:32:25.385Z,7.43
2019-04-29T13:34:54.181Z,2.30
2019-04-29T13:37:22.642Z,8.13
2019-04-29T13:39:55.225Z,4.40
2019-04-29T13:42:21.218Z,3.73
2019-04-29T13:45:05.086Z,5.20
2019-04-29T13:47:28.357Z,4.47
2019-04-29T13:49:55.927Z,3.53
2019-04-29T13:52:24.326Z,3.93
2019-04-29T13:54:52.728Z,5.13
2019-04-29T13:57:21.424Z,3.00
2019-04-29T13:59:51.470Z,4.77
2019-04-29T14:02:22.775Z,7.33
2019-04-29T14:04:55.944Z,7.40
2019-04-29T14:07:24.301Z,4.57
2019-04-29T14:09:52.701Z,3.57
2019-04-29T14:14:54.039Z,5.87
2019-04-29T14:17:26.563Z,8.37
2019-04-29T14:19:53.156Z,4.63
2019-04-29T14:22:22.769Z,5.40
2019-04-29T14:24:51.221Z,3.33
2019-04-29T14:27:25.244Z,5.17
2019-04-29T14:29:51.531Z,4.80
2019-04-29T14:32:33.456Z,4.33
2019-04-29T14:35:07.242Z,4.90
2019-04-29T14:37:32.922Z,5.20
2019-04-29T14:40:02.891Z,5.77
2019-04-29T14:42:56.633Z,4.40
2019-04-29T14:45:29.702Z,5.30
2019-04-29T14:48:11.967Z,4.13
2019-04-29T14:50:41.327Z,4.50
2019-04-29T14:53:10.204Z,5.50
2019-04-29T14:55:39.534Z,4.77
2019-04-29T14:58:08.271Z,4.50
2019-04-29T15:00:44.894Z,4.37
2019-04-29T15:03:13.682Z,4.97
2019-04-29T15:05:42.684Z,5.90
2019-04-29T15:08:11.217Z,4.57
2019-04-29T15:10:40.243Z,6.83
2019-04-29T15:13:21.264Z,9.43
2019-04-29T15:16:03.753Z,9.47
2019-04-29T15:18:32.880Z,5.37
2019-04-29T15:20:56.293Z,5.10
2019-04-29T15:23:28.881Z,7.43
2019-04-29T15:25:55.201Z,9.77
2019-04-29T15:28:23.806Z,5.73
2019-04-29T15:30:52.507Z,7.23
2019-04-29T15:33:21.167Z,10.07
2019-04-29T15:35:49.617Z,7.13
2019-04-29T15:38:18.121Z,6.37
2019-04-29T15:40:46.538Z,6.83
2019-04-29T15:43:17.883Z,8.03
2019-04-29T15:45:45.196Z,8.63
2019-04-29T15:48:13.601Z,8.60
2019-04-29T15:50:42.297Z,8.27
2019-04-29T15:53:11.026Z,8.20
2019-04-29T15:55:41.284Z,7.57
2019-04-29T15:58:09.721Z,8.63
2019-04-29T16:00:40.436Z,8.57
2019-04-29T16:03:12.743Z,7.37
2019-04-29T16:06:04.338Z,7.77
2019-04-29T16:08:15.979Z,8.63
2019-04-29T16:11:02.619Z,8.40
2019-04-29T16:13:31.321Z,8.37
2019-04-29T16:16:00.542Z,6.93
2019-04-29T16:18:28.966Z,8.40
2019-04-29T16:20:57.521Z,7.97
2019-04-29T16:23:25.923Z,8.70
2019-04-29T16:25:54.617Z,11.60
2019-04-29T16:28:30.942Z,10.67
2019-04-29T16:30:54.418Z,9.67
2019-04-29T16:33:23.595Z,8.43
2019-04-29T16:35:52.041Z,11.13
2019-04-29T16:38:21.031Z,7.93
2019-04-29T16:41:00.422Z,7.70
2019-04-29T16:43:31.112Z,7.40
2019-04-29T16:46:04.257Z,8.83
2019-04-29T16:48:33.353Z,10.10
2019-04-29T16:51:06.684Z,9.13
2019-04-29T16:53:32.386Z,9.80
2019-04-29T16:56:01.148Z,10.17
2019-04-29T16:58:29.779Z,8.57
2019-04-29T17:00:58.191Z,10.53
2019-04-29T17:03:26.628Z,8.70
2019-04-29T17:05:55.298Z,10.50
2019-04-29T17:08:25.842Z,10.13
2019-04-29T17:10:56.568Z,10.10
2019-04-29T17:13:25.237Z,9.17
2019-04-29T17:15:53.888Z,8.70
2019-04-29T17:18:22.460Z,8.90
2019-04-29T17:20:51.659Z,9.03
2019-04-29T17:23:24.131Z,8.60
2019-04-29T17:25:50.211Z,8.07
2019-04-29T17:28:25.821Z,8.17
2019-04-29T17:31:11.648Z,8.77
2019-04-29T17:33:37.482Z,10.90
2019-04-29T17:36:06.893Z,7.43
2019-04-29T17:38:35.575Z,10.30
2019-04-29T17:41:04.000Z,9.27
2019-04-29T17:43:51.265Z,8.30
2019-04-29T17:46:30.229Z,7.80
2019-04-29T17:49:17.091Z,8.70
2019-04-29T17:51:46.001Z,8.10
2019-04-29T17:54:25.518Z,6.50
2019-04-29T17:57:25.072Z,7.47
2019-04-29T17:59:36.795Z,7.20
2019-04-29T18:02:22.097Z,7.57
2019-04-29T18:04:57.335Z,7.23
2019-04-29T18:07:44.994Z,6.47
2019-04-29T18:10:17.565Z,8.13
2019-04-29T18:12:45.517Z,9.17
2019-04-29T18:15:20.018Z,8.73
2019-04-29T18:17:46.729Z,12.83
2019-04-29T18:20:35.825Z,8.73
2019-04-29T18:23:11.085Z,9.00
2019-04-29T18:25:42.342Z,8.70
2019-04-29T18:28:11.059Z,8.50
2019-04-29T18:30:40.025Z,8.60
2019-04-29T18:33:08.470Z,9.17
2019-04-29T18:35:36.954Z,8.33
2019-04-29T18:38:07.465Z,10.20
2019-04-29T18:40:42.034Z,12.30
2019-04-29T18:43:06.347Z,9.27
2019-04-29T18:45:36.808Z,9.27
2019-04-29T18:48:08.999Z,9.53
2019-04-29T18:50:38.835Z,10.13
2019-04-29T18:53:06.933Z,11.33
2019-04-29T18:55:36.089Z,11.13
2019-04-29T18:58:05.799Z,9.87
2019-04-29T19:00:34.873Z,8.83
2019-04-29T19:03:04.241Z,8.30
2019-04-29T19:05:40.593Z,9.13
2019-04-29T19:08:14.300Z,9.30
2019-04-29T19:10:41.324Z,8.80
2019-04-29T19:13:14.872Z,8.23
2019-04-29T19:15:47.007Z,11.23
2019-04-29T19:18:12.467Z,8.47
2019-04-29T19:20:41.688Z,8.47
2019-04-29T19:23:10.483Z,8.40
2019-04-29T19:25:41.514Z,8.07
2019-04-29T19:28:14.331Z,10.87
2019-04-29T19:30:40.175Z,10.40
2019-04-29T19:33:09.056Z,7.47
2019-04-29T19:35:38.770Z,7.90
2019-04-29T19:38:12.408Z,8.50
2019-04-29T19:40:41.309Z,8.03
2019-04-29T19:43:10.273Z,9.53
2019-04-29T19:45:38.696Z,8.17
2019-04-29T19:48:07.189Z,8.50
2019-04-29T19:50:35.901Z,8.43
2019-04-29T19:53:04.888Z,8.40
2019-04-29T19:55:41.785Z,8.60
2019-04-29T19:58:07.114Z,9.13
2019-04-29T20:00:38.356Z,11.17
2019-04-29T20:03:18.298Z,11.03
2019-04-29T20:05:45.949Z,9.90
2019-04-29T20:08:26.623Z,9.10
2019-04-29T20:10:48.209Z,9.27
2019-04-29T20:13:15.186Z,10.30
2019-04-29T20:15:46.303Z,9.80
2019-04-29T20:18:34.432Z,9.83
2019-04-29T20:21:08.847Z,9.60
2019-04-29T20:23:38.469Z,9.80
2019-04-29T20:26:13.927Z,11.10
2019-04-29T20:28:36.000Z,10.20
2019-04-29T20:31:16.379Z,13.47
2019-04-29T20:33:37.076Z,11.00
2019-04-29T20:36:06.161Z,10.87
2019-04-29T20:38:38.752Z,10.50
2019-04-29T20:41:07.992Z,16.00
2019-04-29T20:43:36.674Z,11.00
2019-04-29T20:46:05.726Z,10.93
2019-04-29T20:48:36.788Z,11.17
2019-04-29T20:51:11.537Z,16.10
2019-04-29T20:53:39.802Z,11.63
2019-04-29T20:56:12.030Z,13.97
2019-04-29T20:58:39.177Z,12.27
2019-04-29T21:01:11.249Z,13.43
2019-04-29T21:03:44.882Z,12.70
2019-04-29T21:06:10.861Z,14.17
2019-04-29T21:08:39.683Z,14.40
2019-04-29T21:11:16.151Z,13.90
2019-04-29T21:13:55.690Z,14.60
2019-04-29T21:16:22.717Z,14.07
2019-04-29T21:18:54.883Z,14.50
2019-04-29T21:21:25.433Z,16.13
2019-04-29T21:23:55.295Z,15.17
2019-04-29T21:26:26.081Z,14.10
2019-04-29T21:28:55.558Z,15.17
2019-04-29T21:31:25.523Z,16.20
2019-04-29T21:33:58.956Z,14.63
2019-04-29T21:36:45.332Z,14.27
2019-04-29T21:39:17.929Z,15.47
2019-04-29T21:41:55.514Z,18.40
2019-04-29T21:44:27.849Z,18.13
2019-04-29T21:46:55.271Z,14.03
2019-04-29T21:49:25.694Z,14.20
2019-04-29T21:51:55.481Z,13.60
2019-04-29T21:54:24.035Z,14.80
2019-04-29T21:56:52.467Z,16.00
2019-04-29T21:59:20.933Z,14.70
2019-04-29T22:01:49.521Z,17.50
2019-04-29T22:04:18.294Z,16.13
2019-04-29T22:06:47.508Z,15.90
2019-04-29T22:09:16.387Z,15.80
2019-04-29T22:11:46.874Z,17.10
2019-04-29T22:14:15.697Z,21.83
2019-04-29T22:16:47.532Z,18.27
2019-04-29T22:19:17.379Z,18.70
2019-04-29T22:21:45.908Z,18.03
2019-04-29T22:24:14.514Z,22.67
2019-04-29T22:26:44.956Z,18.97
2019-04-29T22:29:13.488Z,21.30
2019-04-29T22:31:42.121Z,22.70
2019-04-29T22:34:15.239Z,23.53
2019-04-29T22:36:40.992Z,21.27
2019-04-29T22:39:09.656Z,25.63
2019-04-29T22:41:56.007Z,22.20
2019-04-29T22:44:25.974Z,25.83
2019-04-29T22:46:56.769Z,24.57
2019-04-29T22:49:29.242Z,22.70
2019-04-29T22:51:57.230Z,24.20
2019-04-29T22:54:25.834Z,20.63
2019-04-29T22:56:56.613Z,25.77
2019-04-29T22:59:25.412Z,25.90
2019-04-29T23:01:55.668Z,21.40
2019-04-29T23:04:24.956Z,26.30
2019-04-29T23:06:53.547Z,23.20
2019-04-29T23:09:22.228Z,23.10
2019-04-29T23:11:51.750Z,22.83
2019-04-29T23:14:20.242Z,24.90
2019-04-29T23:16:48.699Z,25.27
2019-04-29T23:19:18.530Z,23.03
2019-04-29T23:22:05.763Z,26.57
2019-04-29T23:24:36.192Z,22.33
2019-04-29T23:27:06.224Z,27.23
2019-04-29T23:29:37.101Z,26.93
2019-04-29T23:32:08.303Z,24.90
2019-04-29T23:34:37.780Z,23.93
2019-04-29T23:37:06.212Z,28.37
2019-04-29T23:39:34.853Z,27.40
2019-04-29T23:42:04.708Z,25.40
2019-04-29T23:44:37.883Z,27.63
2019-04-29T23:47:05.168Z,30.80
2019-04-29T23:49:42.296Z,27.70
2019-04-29T23:52:11.077Z,26.37
2019-04-29T23:54:44.180Z,25.03
2019-04-29T23:57:16.337Z,27.80
